Happyland, Minnesota
Current Conditions -  °F | °C
As of 8:55 PM on Wednesday 22 Oct 2014 (Local Time) from KINL Reporting Station
Overcast Overcast  
Wind Chill: 55°   Ceiling: 4100
Heat Index: 55°   Visibility: 10mi
Dew Point: 41°   Wind: 7mph
Humidity: 59%   Direction: 170°S
Pressure: 29.94"   Gusts: NA
Location:  48.2756°N, 93.4004°W
Report Text: KINL 230155Z AUTO 17006KT 10SM OVC041 13/05 A2994 RMK AO2 SLP145 T01280050
Loading
Personal Weather Stations






























Interactive Weather Map
Tropical Storm Tracking
New forecast layout! Learn more

10-Day Weather Forecast

Advertisements
Track Severe Weather on mobile